Aérodrome :
LOGIN :

S'inscrire | Disclaimer

   EN    FR    IT 

 










Légende :    VFR   VFR Marginal   IFR   IFR Intensif   IFR Très Intensif
Visi : 
Plafond : 
>= 8 km
>= 3000ft
5 à 8 km
1000 à 3000 ft
1500m à 5 km
500 à 1000 ft
800 à 1500m
200 à 500 ft
< 800m
< 200 ft
Symboles :   Orages  Brouillard  Fortes neiges  Fortes précipitations  Vent > 20 kt
SIGMETs :   Divers  Orages  Givrage  Turbulence  Onde Orograph.  Cendres Volcan.







- Altitude de l'aérodrome : 90 ft
- Code IATA : NTE
- Voir les cartes d'approche


LFRS - Nantes

DERNIER METAR :
  • 292100Z AUTO 11005KT CAVOK 12/02 Q1006 NOSIG

METARs EXPIRÉS :
  • 292030Z AUTO 11005KT CAVOK 13/02 Q1006 NOSIG
  • 292000Z AUTO 11004KT CAVOK 13/01 Q1006 NOSIG
  • 291930Z AUTO 17003KT CAVOK 15/01 Q1006 NOSIG
  • 291900Z AUTO 17006KT CAVOK 16/01 Q1007 NOSIG
  • 291830Z AUTO 16010KT CAVOK 17/00 Q1007 NOSIG

TAF TAF LFRS
Valide du 29 à 18h jusqu'au 01 à 00h UTC


291700Z 2918/3024 15010KT CAVOK
FM300400 16012KT 9999 RA SCT015 BKN030
TEMPO 3005/3009 15015G25KT 3000 RA BKN014
BECMG 3009/3011 22012KT SCT040CB
TEMPO 3009/3018 22015G30KT 4000 RA BKN014 BKN040CB
PROB40
TEMPO 3012/3024 2000 TSRA
ATIS : +33 2 40 05 12 74
Pas de NOTAMs connus pour ce terrain.



MET'MAP, la Météo Aéronautique d'un coup d'oeil ! - Copyright ORBIFLY Décembre 2007 - Disclaimer

ORBIFLY MET'MAP TEAM :

Programmation & Développement : Alexandra Zaïnal
Conception & Développement : Baudouin d'Aumeries
Co-Programmation & Développement : Marc-Olivier Méhu
Soutien technique & logistique : Manuel Goepfert

Contact : metmap@orbifly.com




SOURCES & CREDITS :

   NOAA